Time;durP1;ratioP1;P1;durP2;ratioP2;P2;SDS_P1;SDS_P2;PMS_P1;PMS_P2;Temp;Humidity;BMP_temperature;BMP_pressure;BME280_temperature;BME280_humidity;BME280_pressure;Samples;Min_cycle;Max_cycle;Signal;HPM_P1;HPM_P2
2021/06/06 00:00:31;;;;;;;8.77;7.78;;;;;;;17.70;80.87;100952.25;4984246;28;20030;-78
2021/06/06 00:02:58;;;;;;;7.80;7.03;;;;;;;17.70;80.46;100960.25;4985958;28;20041;-78
2021/06/06 00:05:43;;;;;;;8.57;6.93;;;;;;;17.71;80.94;100952.22;4986534;28;20026;-78
2021/06/06 00:08:09;;;;;;;8.30;7.32;;;;;;;17.61;80.70;100949.88;4951598;28;20038;-78
2021/06/06 00:10:34;;;;;;;9.00;7.28;;;;;;;17.41;80.70;100948.63;4970623;28;20149;-78
2021/06/06 00:13:00;;;;;;;8.32;7.50;;;;;;;17.37;80.75;100951.41;4955514;28;20070;-78
2021/06/06 00:15:25;;;;;;;8.13;7.25;;;;;;;17.35;80.67;100954.13;4985760;28;20037;-78
2021/06/06 00:17:50;;;;;;;10.70;7.10;;;;;;;17.33;80.44;100953.28;4987295;28;20449;-78
2021/06/06 00:20:16;;;;;;;9.60;8.20;;;;;;;17.29;80.80;100952.50;4986329;28;20034;-78
2021/06/06 00:22:42;;;;;;;9.85;8.85;;;;;;;17.26;81.28;100954.38;4988348;28;20138;-78
2021/06/06 00:25:09;;;;;;;8.00;7.20;;;;;;;17.23;81.75;100959.78;4985216;28;20052;-78
2021/06/06 00:27:35;;;;;;;8.70;7.38;;;;;;;17.16;81.43;100952.88;4989757;28;20090;-78
2021/06/06 00:30:00;;;;;;;10.13;7.90;;;;;;;17.18;81.87;100956.38;4990825;28;20046;-77
2021/06/06 00:32:26;;;;;;;9.00;8.13;;;;;;;17.02;82.93;100953.25;4988339;28;20031;-78
2021/06/06 00:34:52;;;;;;;7.63;5.78;;;;;;;16.93;82.27;100951.69;4973252;28;20080;-78
2021/06/06 00:37:17;;;;;;;8.95;8.02;;;;;;;16.92;82.26;100952.59;4993955;28;20398;-78
2021/06/06 00:39:42;;;;;;;7.40;6.70;;;;;;;16.98;82.23;100948.91;4991346;28;20037;-78
2021/06/06 00:42:09;;;;;;;11.18;8.25;;;;;;;17.02;82.21;100956.78;4957904;28;20034;-78
2021/06/06 00:44:35;;;;;;;6.97;6.15;;;;;;;17.04;81.46;100951.41;4993021;28;20045;-78
2021/06/06 00:47:03;;;;;;;8.10;7.30;;;;;;;17.03;81.42;100947.00;4959052;28;20034;-78
2021/06/06 00:49:29;;;;;;;9.02;8.05;;;;;;;16.97;81.70;100953.34;4971734;28;20035;-78
2021/06/06 00:51:58;;;;;;;10.05;9.05;;;;;;;16.84;82.16;100946.59;4953590;28;20569;-78
2021/06/06 00:54:33;;;;;;;9.40;8.45;;;;;;;16.76;83.13;100948.53;4962185;28;20045;-79
2021/06/06 00:57:04;;;;;;;7.63;6.43;;;;;;;16.69;82.27;100950.50;4945879;28;20035;-78
2021/06/06 00:59:33;;;;;;;8.32;7.53;;;;;;;16.68;81.72;100950.53;4972109;28;20038;-78
2021/06/06 01:01:59;;;;;;;9.30;8.20;;;;;;;16.64;81.78;100947.94;4991910;28;20468;-77
2021/06/06 01:04:24;;;;;;;8.80;7.90;;;;;;;16.59;81.90;100947.16;4990915;28;20086;-78
2021/06/06 01:06:53;;;;;;;8.90;8.00;;;;;;;16.60;82.14;100946.25;4968356;28;20102;-78
2021/06/06 01:09:23;;;;;;;7.00;6.30;;;;;;;16.58;81.65;100944.53;4956868;28;20038;-78
2021/06/06 01:11:52;;;;;;;9.30;7.45;;;;;;;16.62;81.70;100947.09;4951129;28;20105;-78
2021/06/06 01:14:29;;;;;;;8.25;7.45;;;;;;;16.67;81.58;100943.44;4970791;28;20111;-78
2021/06/06 01:17:24;;;;;;;10.13;8.00;;;;;;;16.70;81.18;100952.22;4967971;28;20070;-78
2021/06/06 01:20:00;;;;;;;9.65;8.65;;;;;;;16.67;82.49;100948.78;4971862;28;20030;-78
2021/06/06 01:22:52;;;;;;;8.52;7.63;;;;;;;16.50;81.81;100955.38;4967270;28;20022;-78
2021/06/06 01:25:29;;;;;;;8.80;7.35;;;;;;;16.50;81.35;100950.03;4988673;28;20065;-78
2021/06/06 01:28:21;;;;;;;8.50;7.68;;;;;;;16.48;80.89;100951.91;4955010;28;20061;-78
2021/06/06 01:30:56;;;;;;;11.02;9.60;;;;;;;16.29;82.82;100953.22;4988992;28;20105;-78
2021/06/06 01:33:34;;;;;;;7.70;7.00;;;;;;;16.16;82.46;100950.81;4983202;28;20085;-78
2021/06/06 01:36:09;;;;;;;6.97;6.25;;;;;;;16.17;81.74;100955.25;4988150;28;20030;-78
2021/06/06 01:38:41;;;;;;;7.10;6.40;;;;;;;16.14;81.59;100949.13;4971049;28;20062;-78
2021/06/06 01:41:12;;;;;;;6.97;6.28;;;;;;;16.07;81.70;100947.50;4984614;28;20118;-78
2021/06/06 01:43:43;;;;;;;7.07;6.38;;;;;;;16.05;82.13;100944.88;4970823;28;20034;-78
2021/06/06 01:46:17;;;;;;;8.02;7.32;;;;;;;15.99;82.43;100940.56;4969770;28;20047;-78
2021/06/06 01:48:44;;;;;;;10.02;8.95;;;;;;;15.99;83.13;100942.34;4968992;28;20031;-78
2021/06/06 01:51:22;;;;;;;10.30;8.85;;;;;;;15.89;82.76;100940.81;4970214;28;20045;-78
2021/06/06 01:53:49;;;;;;;10.18;9.18;;;;;;;15.81;83.15;100945.41;4988046;28;20031;-78
2021/06/06 01:56:20;;;;;;;10.77;9.77;;;;;;;15.81;83.55;100940.09;4971127;28;20121;-78
2021/06/06 01:58:54;;;;;;;8.73;7.82;;;;;;;15.77;83.40;100948.16;4953381;28;20088;-78
2021/06/06 02:01:24;;;;;;;9.35;8.27;;;;;;;15.78;83.15;100947.22;4970028;28;20023;-78
2021/06/06 02:03:55;;;;;;;9.35;8.45;;;;;;;15.80;83.39;100944.53;4951692;28;20411;-78
2021/06/06 02:06:48;;;;;;;11.23;10.13;;;;;;;15.79;83.90;100953.41;4966073;28;20035;-78
2021/06/06 02:09:23;;;;;;;9.55;8.60;;;;;;;15.83;83.13;100948.94;4968125;28;20035;-78
2021/06/06 02:12:06;;;;;;;8.98;8.07;;;;;;;15.80;82.89;100951.63;4968481;28;20042;-78
2021/06/06 02:14:46;;;;;;;7.03;6.30;;;;;;;15.78;81.96;100947.22;4971394;28;20570;-78
2021/06/06 02:17:29;;;;;;;8.43;6.57;;;;;;;15.78;81.97;100957.88;4956386;28;20035;-78
2021/06/06 02:20:09;;;;;;;6.82;5.65;;;;;;;15.76;81.63;100943.72;4950052;28;20058;-78
2021/06/06 02:22:36;;;;;;;9.93;8.90;;;;;;;15.76;81.32;100951.69;4963525;28;20464;-78
2021/06/06 02:25:05;;;;;;;7.55;6.57;;;;;;;15.72;80.98;100942.03;4970827;28;20065;-79
2021/06/06 02:27:41;;;;;;;7.53;6.82;;;;;;;15.64;81.34;100957.25;4954343;28;20035;-79
2021/06/06 02:30:21;;;;;;;6.45;5.82;;;;;;;15.49;81.75;100942.47;4971383;28;20122;-79
2021/06/06 02:33:12;;;;;;;7.75;6.95;;;;;;;15.36;82.53;100945.41;4971816;28;20035;-79
2021/06/06 02:35:50;;;;;;;6.07;5.47;;;;;;;15.31;82.13;100941.03;4972371;28;20045;-78
2021/06/06 02:38:41;;;;;;;8.15;5.38;;;;;;;15.33;81.86;100947.22;4971744;28;20042;-79
2021/06/06 02:41:18;;;;;;;5.88;4.63;;;;;;;15.34;81.31;100951.63;4937158;28;20043;-79
2021/06/06 02:43:56;;;;;;;6.68;5.20;;;;;;;15.34;81.24;100951.63;4972424;28;20066;-79
2021/06/06 02:46:24;;;;;;;8.93;7.63;;;;;;;15.32;82.69;100953.41;4973327;28;20118;-79
2021/06/06 02:49:01;;;;;;;7.35;6.63;;;;;;;15.31;83.29;100959.66;4972915;28;20057;-78
2021/06/06 02:51:37;;;;;;;9.75;8.85;;;;;;;15.29;83.65;100957.94;4990700;28;20398;-79
2021/06/06 02:54:07;;;;;;;10.10;8.75;;;;;;;15.26;84.19;100955.34;4972146;28;20049;-78
2021/06/06 02:56:42;;;;;;;9.68;8.63;;;;;;;15.24;83.83;100955.34;4967683;28;20511;-78
2021/06/06 02:59:32;;;;;;;10.38;9.38;;;;;;;15.27;84.18;100955.31;4988783;28;20034;-78
2021/06/06 03:02:03;;;;;;;9.30;8.15;;;;;;;15.33;83.69;100954.31;4990298;28;20104;-78
2021/06/06 03:04:32;;;;;;;48.83;9.95;;;;;;;15.37;83.71;100952.47;4971815;28;20034;-78
2021/06/06 03:07:14;;;;;;;33.30;12.43;;;;;;;15.44;85.18;100954.97;4969618;28;20057;-78
2021/06/06 03:09:42;;;;;;;8.30;7.50;;;;;;;15.49;83.74;100952.25;4984750;28;20045;-78
2021/06/06 03:12:11;;;;;;;17.80;9.90;;;;;;;15.57;83.08;100952.97;4967085;28;20767;-78
2021/06/06 03:14:45;;;;;;;11.80;9.82;;;;;;;15.60;83.44;100952.03;4964542;28;20047;-78
2021/06/06 03:17:26;;;;;;;45.83;14.05;;;;;;;15.76;83.02;100949.03;4955667;28;20498;-78
2021/06/06 03:19:56;;;;;;;17.27;11.02;;;;;;;15.88;83.10;100955.91;4965248;28;20051;-78
2021/06/06 03:22:29;;;;;;;21.60;13.95;;;;;;;16.04;83.44;100951.13;4960527;28;20113;-78
2021/06/06 03:24:57;;;;;;;;;;;;;;;16.13;84.35;100958.00;4981397;28;20184;-78
2021/06/06 03:27:27;;;;;;;14.32;10.05;;;;;;;16.29;83.24;100961.22;4955777;28;20291;-77
2021/06/06 03:30:08;;;;;;;16.95;12.02;;;;;;;16.35;83.67;100959.28;4947614;28;20489;-77
2021/06/06 03:32:39;;;;;;;16.95;14.05;;;;;;;16.39;84.21;100965.41;4964358;28;20039;-78
2021/06/06 03:35:09;;;;;;;18.27;13.88;;;;;;;16.39;84.24;100962.75;4968287;28;20035;-78
2021/06/06 03:37:36;;;;;;;13.35;11.60;;;;;;;16.48;83.99;100965.22;4967310;28;20031;-78
2021/06/06 03:40:18;;;;;;;17.35;13.75;;;;;;;16.52;84.33;100963.34;4966772;28;20035;-78
2021/06/06 03:42:51;;;;;;;15.85;12.98;;;;;;;16.60;83.53;100962.22;4968867;28;20089;-78
2021/06/06 03:45:17;;;;;;;18.58;16.05;;;;;;;16.55;84.57;100966.78;4987096;28;20502;-78
2021/06/06 03:47:43;;;;;;;20.00;13.88;;;;;;;16.61;84.37;100961.34;4985178;28;20380;-78
2021/06/06 03:50:13;;;;;;;18.20;14.85;;;;;;;16.68;84.10;100966.50;4964465;28;20131;-78
2021/06/06 03:52:40;;;;;;;12.82;11.55;;;;;;;16.79;83.67;100967.16;4964536;28;20041;-78
2021/06/06 03:55:12;;;;;;;14.38;12.88;;;;;;;16.86;83.84;100960.75;4968787;28;20026;-78
2021/06/06 03:57:38;;;;;;;35.30;17.77;;;;;;;16.89;83.54;100955.34;4981799;28;20042;-78
2021/06/06 04:00:10;;;;;;;42.83;18.23;;;;;;;16.97;83.31;100961.34;4972307;28;20054;-78
2021/06/06 04:02:41;;;;;;;15.95;12.98;;;;;;;17.00;82.91;100961.28;4985824;28;20034;-78
2021/06/06 04:05:12;;;;;;;19.20;14.98;;;;;;;17.03;83.22;100961.22;4972263;28;20027;-78
2021/06/06 04:07:39;;;;;;;14.45;12.48;;;;;;;17.04;83.24;100962.94;4985685;28;20062;-78
2021/06/06 04:10:07;;;;;;;15.80;13.98;;;;;;;17.13;82.48;100955.63;4972794;28;20643;-78
2021/06/06 04:12:33;;;;;;;18.60;14.05;;;;;;;17.27;82.03;100964.16;4969159;28;20527;-77
2021/06/06 04:15:01;;;;;;;14.77;13.00;;;;;;;17.40;81.37;100957.56;4971089;28;20072;-78
2021/06/06 04:17:28;;;;;;;13.75;12.35;;;;;;;17.43;81.25;100962.81;4965829;28;20035;-78
2021/06/06 04:19:55;;;;;;;18.50;13.68;;;;;;;17.46;80.99;100960.03;4988813;28;20062;-78
2021/06/06 04:22:23;;;;;;;13.43;12.07;;;;;;;17.56;80.57;100970.47;4955161;28;20027;-78
2021/06/06 04:24:49;;;;;;;12.82;11.50;;;;;;;17.60;80.33;100969.44;4953418;28;20081;-79
2021/06/06 04:27:15;;;;;;;15.65;14.05;;;;;;;17.60;80.51;100964.13;4973350;28;20442;-78
2021/06/06 04:29:41;;;;;;;15.45;13.88;;;;;;;17.52;80.64;100967.88;4973158;28;20053;-77
2021/06/06 04:32:07;;;;;;;14.68;13.27;;;;;;;17.51;81.08;100963.47;4986805;28;20031;-78
2021/06/06 04:34:42;;;;;;;17.95;14.13;;;;;;;17.50;80.95;100959.06;4972027;28;20101;-79
2021/06/06 04:37:11;;;;;;;14.75;13.25;;;;;;;17.53;80.90;100964.31;4969764;28;20070;-78
2021/06/06 04:39:38;;;;;;;16.90;15.30;;;;;;;17.52;80.96;100965.19;4973349;28;20065;-79
2021/06/06 04:42:06;;;;;;;15.15;13.65;;;;;;;17.52;81.17;100965.19;4952588;29;20040;-78
2021/06/06 04:44:32;;;;;;;15.63;14.02;;;;;;;17.60;80.86;100964.13;4985317;28;20388;-78
2021/06/06 04:46:58;;;;;;;16.55;14.85;;;;;;;17.56;81.22;100962.47;4989117;28;20803;-78
2021/06/06 04:49:25;;;;;;;17.55;15.85;;;;;;;17.52;81.34;100967.88;4989721;28;20030;-78
2021/06/06 04:51:51;;;;;;;18.33;15.40;;;;;;;17.44;82.21;100975.22;4971976;28;20395;-79
2021/06/06 04:54:26;;;;;;;16.27;14.68;;;;;;;17.55;81.38;100972.25;4966638;28;20180;-78
2021/06/06 04:56:52;;;;;;;19.60;17.70;;;;;;;17.64;81.36;100974.66;4965975;28;20067;-78
2021/06/06 04:59:24;;;;;;;16.00;14.30;;;;;;;17.74;80.88;100973.50;4965238;28;20065;-78
2021/06/06 05:01:50;;;;;;;16.85;15.05;;;;;;;17.82;80.87;100970.63;4937792;28;20046;-78
2021/06/06 05:04:16;;;;;;;14.98;13.57;;;;;;;17.97;80.48;100966.63;4985749;28;20030;-78
2021/06/06 05:06:42;;;;;;;15.85;14.25;;;;;;;18.05;80.01;100971.72;4948610;28;20504;-78
2021/06/06 05:09:14;;;;;;;15.85;14.07;;;;;;;18.14;80.09;100963.44;4968150;28;20069;-78
2021/06/06 05:11:42;;;;;;;17.10;15.32;;;;;;;18.19;80.01;100964.19;4965017;28;20466;-78
2021/06/06 05:14:11;;;;;;;17.13;15.02;;;;;;;18.23;80.05;100973.84;4969013;28;20030;-78
2021/06/06 05:16:38;;;;;;;17.25;15.02;;;;;;;18.29;80.42;100967.47;4966169;28;20031;-78
2021/06/06 05:19:05;;;;;;;17.13;15.48;;;;;;;18.43;79.98;100967.00;4971779;28;20124;-78
2021/06/06 05:21:32;;;;;;;18.38;15.77;;;;;;;18.49;80.34;100966.81;4956360;28;20027;-78
2021/06/06 05:24:03;;;;;;;15.27;13.77;;;;;;;18.58;79.94;100969.19;4966111;28;20123;-78
2021/06/06 05:26:29;;;;;;;15.40;13.90;;;;;;;18.73;79.59;100968.72;4968789;28;20498;-78
2021/06/06 05:28:54;;;;;;;16.13;14.63;;;;;;;18.78;79.45;100963.22;4986453;28;20030;-78
2021/06/06 05:31:21;;;;;;;15.35;13.85;;;;;;;18.88;79.32;100963.78;4989065;28;20109;-78
2021/06/06 05:33:47;;;;;;;14.93;13.43;;;;;;;18.95;79.10;100968.00;4981785;28;20505;-79
2021/06/06 05:36:12;;;;;;;16.33;14.80;;;;;;;18.95;79.40;100970.69;4988019;28;20036;-78
2021/06/06 05:38:38;;;;;;;13.82;12.52;;;;;;;19.06;78.75;100960.50;4985828;28;20526;-78
2021/06/06 05:41:05;;;;;;;16.10;14.60;;;;;;;19.15;78.61;100968.22;4954048;28;20088;-78
2021/06/06 05:43:30;;;;;;;18.10;16.40;;;;;;;19.16;78.61;100969.94;4949794;29;20051;-78
2021/06/06 05:45:57;;;;;;;16.30;14.70;;;;;;;19.23;78.51;100976.84;4985468;28;20030;-78
2021/06/06 05:48:24;;;;;;;15.43;13.93;;;;;;;19.35;78.25;100977.31;4987403;28;20088;-78
2021/06/06 05:50:55;;;;;;;16.17;14.68;;;;;;;19.39;78.43;100977.16;4971020;28;20054;-78
2021/06/06 05:53:36;;;;;;;15.27;12.90;;;;;;;19.51;77.55;100975.84;4948926;28;20407;-78
2021/06/06 05:56:05;;;;;;;14.38;12.88;;;;;;;19.60;77.36;100975.53;4988201;28;20034;-78
2021/06/06 05:58:31;;;;;;;14.45;12.95;;;;;;;19.66;77.19;100978.00;4988246;28;20036;-78
2021/06/06 06:00:57;;;;;;;15.48;14.07;;;;;;;19.70;76.80;100976.06;4965455;28;20062;-78
2021/06/06 06:03:22;;;;;;;15.60;14.10;;;;;;;19.70;76.79;100982.31;4986604;28;20097;-78
2021/06/06 06:05:48;;;;;;;12.50;11.27;;;;;;;19.83;75.87;100990.78;4948142;28;20050;-77
2021/06/06 06:08:30;;;;;;;14.40;12.90;;;;;;;20.02;75.70;100982.06;4985009;28;20045;-78
2021/06/06 06:11:02;;;;;;;13.90;12.65;;;;;;;20.10;74.95;100979.94;4982233;28;20041;-78
2021/06/06 06:13:30;;;;;;;13.27;11.90;;;;;;;20.09;74.89;100989.75;4985890;28;20035;-78
2021/06/06 06:15:56;;;;;;;13.27;11.70;;;;;;;20.22;74.85;100989.31;4987443;28;20406;-78
2021/06/06 06:18:26;;;;;;;11.65;10.55;;;;;;;20.31;74.40;100984.47;4953795;28;20027;-78
2021/06/06 06:20:52;;;;;;;12.23;11.02;;;;;;;20.41;73.66;100989.44;4984942;28;20030;-78
2021/06/06 06:23:17;;;;;;;11.30;10.27;;;;;;;20.55;73.67;100984.44;4969348;28;20102;-78
2021/06/06 06:25:43;;;;;;;11.77;10.77;;;;;;;20.68;73.30;100983.00;4986485;28;20049;-78
2021/06/06 06:28:08;;;;;;;12.20;11.00;;;;;;;20.74;72.69;100992.63;4967081;28;20042;-78
2021/06/06 06:31:00;;;;;;;13.50;12.20;;;;;;;20.82;72.16;100985.13;4979377;28;20053;-78
2021/06/06 06:33:34;;;;;;;13.38;12.00;;;;;;;20.82;71.76;100995.84;4964347;28;20036;-78
2021/06/06 06:35:59;;;;;;;11.82;10.73;;;;;;;20.90;71.65;100998.22;4987054;28;20040;-78
2021/06/06 06:38:26;;;;;;;12.60;11.32;;;;;;;20.97;71.32;100989.84;4986156;28;20062;-78
2021/06/06 06:40:52;;;;;;;14.00;12.80;;;;;;;21.01;71.19;100990.59;4964159;28;20030;-78
2021/06/06 06:43:17;;;;;;;11.77;10.68;;;;;;;21.08;70.61;100991.22;4970122;28;20038;-78
2021/06/06 06:45:44;;;;;;;14.60;11.63;;;;;;;21.17;70.49;100989.00;4954064;28;20503;-77
2021/06/06 06:48:13;;;;;;;13.35;12.15;;;;;;;21.20;70.21;100988.00;4963913;28;20091;-78
2021/06/06 06:50:39;;;;;;;14.63;13.32;;;;;;;21.28;70.18;100987.69;4969180;28;20096;-78
2021/06/06 06:53:05;;;;;;;14.23;12.93;;;;;;;21.35;69.80;100990.03;4986631;28;20041;-78
2021/06/06 06:55:31;;;;;;;11.95;10.75;;;;;;;21.42;69.91;100987.97;4966871;28;20030;-78
2021/06/06 06:57:58;;;;;;;12.93;11.68;;;;;;;21.45;69.88;100988.69;4968481;28;20513;-78
2021/06/06 07:00:27;;;;;;;12.75;11.57;;;;;;;21.51;68.98;100984.00;4948393;29;20043;-78
2021/06/06 07:02:53;;;;;;;13.10;12.00;;;;;;;21.55;69.37;100985.63;4981374;28;20707;-78
2021/06/06 07:05:18;;;;;;;13.10;11.80;;;;;;;21.61;69.30;100985.34;4985089;28;20062;-77
2021/06/06 07:07:44;;;;;;;13.07;11.88;;;;;;;21.63;68.78;100988.81;4986262;28;20505;-78
2021/06/06 07:10:14;;;;;;;13.13;11.95;;;;;;;21.70;68.37;100986.75;4984136;28;20162;-77
2021/06/06 07:12:40;;;;;;;11.45;10.40;;;;;;;21.77;68.55;100988.19;4984234;28;20047;-78
2021/06/06 07:15:08;;;;;;;13.43;12.23;;;;;;;21.91;67.87;100995.66;4986824;28;20092;-78
2021/06/06 07:17:36;;;;;;;13.23;12.10;;;;;;;21.88;67.90;100994.84;4968928;28;20034;-78
2021/06/06 07:20:06;;;;;;;13.05;11.82;;;;;;;21.90;67.66;100997.44;4983632;28;20581;-78
2021/06/06 07:22:31;;;;;;;12.95;11.70;;;;;;;21.98;68.33;100989.03;4985459;28;20030;-78
2021/06/06 07:24:57;;;;;;;12.70;11.52;;;;;;;21.97;68.14;100998.03;4969554;28;20597;-78
2021/06/06 07:27:23;;;;;;;11.93;10.82;;;;;;;22.00;67.70;101003.28;4983598;28;20114;-78
2021/06/06 07:29:50;;;;;;;12.60;11.40;;;;;;;22.11;67.31;100990.19;4981830;28;20125;-78
2021/06/06 07:32:16;;;;;;;11.43;10.32;;;;;;;22.18;66.61;100996.16;4987985;28;20046;-78
2021/06/06 07:34:41;;;;;;;13.07;11.88;;;;;;;22.20;66.21;100999.69;4967659;28;20039;-78
2021/06/06 07:37:07;;;;;;;13.70;12.40;;;;;;;22.22;66.74;101004.06;4982140;28;20026;-78
2021/06/06 07:39:33;;;;;;;10.68;9.77;;;;;;;22.29;66.44;101002.78;4994142;28;20034;-79
2021/06/06 07:41:59;;;;;;;13.45;12.20;;;;;;;22.16;66.49;100998.91;4989375;28;20049;-78
2021/06/06 07:44:25;;;;;;;12.30;11.20;;;;;;;22.11;66.68;100995.56;4989042;28;20483;-78
2021/06/06 07:46:52;;;;;;;12.82;11.63;;;;;;;22.02;66.02;101001.38;4987749;28;20042;-77
2021/06/06 07:49:18;;;;;;;11.23;10.15;;;;;;;22.09;65.74;100997.47;4996340;28;20134;-76
2021/06/06 07:51:43;;;;;;;10.57;9.55;;;;;;;22.22;65.33;100993.31;4975554;28;20062;-78
2021/06/06 07:54:08;;;;;;;9.98;9.07;;;;;;;22.32;64.64;100993.72;4987335;28;20038;-79
2021/06/06 07:56:35;;;;;;;10.93;9.82;;;;;;;22.40;64.19;100987.97;4969661;28;20038;-78
2021/06/06 07:59:01;;;;;;;9.27;8.05;;;;;;;22.52;63.73;100990.06;4987705;28;20034;-78
2021/06/06 08:01:26;;;;;;;11.13;9.88;;;;;;;22.63;63.37;100985.03;4995033;28;20022;-78
2021/06/06 08:03:52;;;;;;;8.93;8.13;;;;;;;22.66;62.29;100984.91;4989793;28;20026;-78
2021/06/06 08:06:19;;;;;;;8.73;7.95;;;;;;;22.78;61.92;100982.56;4973941;28;20418;-78
2021/06/06 08:08:44;;;;;;;10.35;9.35;;;;;;;22.85;60.45;100978.59;4987956;28;20528;-79
2021/06/06 08:11:11;;;;;;;9.50;8.60;;;;;;;22.87;60.15;100980.28;4972858;28;20030;-79
2021/06/06 08:13:38;;;;;;;7.75;6.95;;;;;;;22.95;60.43;100972.69;4989948;28;20038;-78
2021/06/06 08:16:05;;;;;;;8.73;7.93;;;;;;;23.08;60.05;100978.34;4968605;28;20077;-78
2021/06/06 08:18:33;;;;;;;9.25;8.35;;;;;;;23.12;59.46;100976.34;4972199;28;20046;-78
2021/06/06 08:21:12;;;;;;;8.82;7.97;;;;;;;23.06;59.11;100980.25;4990687;28;20034;-78
2021/06/06 08:23:38;;;;;;;11.93;7.60;;;;;;;22.95;58.59;100980.75;4958256;28;20038;-79
2021/06/06 08:26:05;;;;;;;7.90;7.10;;;;;;;22.99;57.49;100978.81;4989054;28;20049;-78
2021/06/06 08:28:32;;;;;;;6.97;6.13;;;;;;;23.01;57.25;100971.53;4990451;28;20575;-78
2021/06/06 08:31:01;;;;;;;7.65;6.95;;;;;;;23.18;56.31;100967.97;4990432;28;20501;-78
2021/06/06 08:33:29;;;;;;;7.13;6.43;;;;;;;23.36;55.98;100971.50;4985464;28;20046;-79
2021/06/06 08:35:57;;;;;;;8.20;6.63;;;;;;;23.47;54.11;100973.63;4989488;28;20061;-79
2021/06/06 08:38:25;;;;;;;6.78;5.65;;;;;;;23.54;54.37;100967.84;4990978;28;20512;-79
2021/06/06 08:40:56;;;;;;;8.15;6.15;;;;;;;23.73;53.14;100974.97;4990069;28;20053;-78
2021/06/06 08:43:26;;;;;;;6.93;5.43;;;;;;;23.84;53.02;100967.16;4987667;28;20498;-79
2021/06/06 08:45:57;;;;;;;7.75;5.80;;;;;;;23.88;52.07;100974.16;4989588;28;20038;-79
2021/06/06 08:48:24;;;;;;;7.03;5.55;;;;;;;24.05;52.30;100966.00;4952959;28;20035;-78
2021/06/06 08:51:18;;;;;;;8.00;5.60;;;;;;;24.21;50.78;100965.16;4973049;28;20065;-79
2021/06/06 08:54:14;;;;;;;6.30;5.40;;;;;;;24.44;51.33;100975.56;4991189;28;20109;-78
2021/06/06 08:56:40;;;;;;;6.15;5.55;;;;;;;24.59;51.21;100962.13;4986692;28;20049;-79
2021/06/06 08:59:11;;;;;;;5.85;5.03;;;;;;;24.54;50.29;100961.50;4972240;28;20039;-79
2021/06/06 09:02:08;;;;;;;5.70;5.13;;;;;;;24.64;50.26;100968.97;4991878;28;20031;-79
2021/06/06 09:04:35;;;;;;;7.80;5.93;;;;;;;24.74;49.85;100963.94;4987915;28;20057;-79
2021/06/06 09:07:05;;;;;;;6.10;5.47;;;;;;;24.87;50.41;100959.53;4969058;28;20042;-79
2021/06/06 09:09:34;;;;;;;6.45;5.80;;;;;;;25.04;49.91;100966.63;4972861;28;20057;-79
2021/06/06 09:12:02;;;;;;;6.75;6.10;;;;;;;25.12;49.79;100964.34;4969259;28;20134;-79
2021/06/06 09:14:28;;;;;;;6.40;5.32;;;;;;;25.33;49.74;100967.59;4990766;28;20482;-79
2021/06/06 09:17:02;;;;;;;6.20;5.60;;;;;;;25.54;48.61;100959.16;4990642;28;20041;-79
2021/06/06 09:19:46;;;;;;;7.50;6.70;;;;;;;25.62;48.23;100956.81;4964227;28;20076;-79
2021/06/06 09:22:14;;;;;;;7.30;5.45;;;;;;;25.76;47.57;100958.69;4956141;28;20050;-79
2021/06/06 09:24:46;;;;;;;6.38;5.70;;;;;;;25.92;46.60;100953.22;4936698;29;20066;-79
2021/06/06 09:27:26;;;;;;;5.80;5.20;;;;;;;26.13;43.89;100956.38;4958743;28;20061;-79
2021/06/06 09:30:11;;;;;;;6.25;4.65;;;;;;;26.39;42.96;100960.94;4990415;28;20064;-78
2021/06/06 09:32:37;;;;;;;6.85;5.60;;;;;;;26.48;43.81;100958.59;4955493;28;20043;-79
2021/06/06 09:35:09;;;;;;;6.10;5.50;;;;;;;26.61;42.95;100952.28;4971995;28;20041;-79
2021/06/06 09:37:43;;;;;;;5.88;5.20;;;;;;;26.86;42.69;100947.97;4951908;28;20665;-79
2021/06/06 09:40:14;;;;;;;5.72;4.75;;;;;;;27.02;40.72;100943.22;4949980;29;20035;-79
2021/06/06 09:42:47;;;;;;;6.63;3.72;;;;;;;27.16;36.65;100935.97;4986339;28;20035;-79
2021/06/06 09:45:35;;;;;;;4.07;3.42;;;;;;;27.27;35.58;100937.03;4987989;28;20042;-79
2021/06/06 09:48:22;;;;;;;4.15;3.53;;;;;;;27.56;35.20;100927.78;4968934;28;20046;-79
2021/06/06 09:50:50;;;;;;;6.35;4.82;;;;;;;27.78;36.83;100937.97;4985932;28;20050;-79
2021/06/06 09:53:27;;;;;;;7.28;4.45;;;;;;;27.91;35.35;100933.44;4968618;28;20042;-79
2021/06/06 09:56:08;;;;;;;6.28;3.85;;;;;;;28.01;33.62;100930.91;4974319;28;20039;-79
2021/06/06 09:58:38;;;;;;;6.00;4.57;;;;;;;28.14;34.29;100929.91;4986986;28;20037;-79
2021/06/06 10:01:29;;;;;;;4.35;3.40;;;;;;;28.30;32.41;100923.34;4989093;28;20059;-79
2021/06/06 10:04:02;;;;;;;4.80;3.10;;;;;;;28.30;30.07;100926.06;4953971;28;20035;-79
2021/06/06 10:06:32;;;;;;;3.58;2.60;;;;;;;28.49;29.71;100926.44;4989160;28;20130;-79
2021/06/06 10:09:05;;;;;;;3.70;2.50;;;;;;;28.66;28.67;100919.72;4991742;28;20505;-79
2021/06/06 10:11:56;;;;;;;4.35;3.13;;;;;;;28.75;28.06;100927.19;4973306;28;20050;-80
2021/06/06 10:14:27;;;;;;;5.47;3.30;;;;;;;28.57;29.97;100921.28;4956224;28;20039;-79
2021/06/06 10:16:57;;;;;;;6.90;3.30;;;;;;;28.55;30.33;100919.69;4971821;28;20034;-79
2021/06/06 10:19:29;;;;;;;4.28;2.58;;;;;;;28.91;28.53;100916.00;4991007;28;20038;-80
2021/06/06 10:22:01;;;;;;;5.72;3.17;;;;;;;29.15;28.98;100920.56;4990245;28;20037;-79
2021/06/06 10:24:37;;;;;;;4.47;3.17;;;;;;;29.38;28.61;100921.47;4985157;28;20034;-80
2021/06/06 10:27:17;;;;;;;3.97;3.33;;;;;;;29.43;26.58;100919.25;4967912;28;20050;-79
2021/06/06 10:29:52;;;;;;;4.60;2.75;;;;;;;29.53;27.34;100924.78;4971425;28;20031;-79
2021/06/06 10:32:33;;;;;;;3.17;2.30;;;;;;;29.65;27.29;100926.56;4970488;28;20503;-79
2021/06/06 10:35:04;;;;;;;4.07;2.70;;;;;;;29.57;24.93;100916.28;4955188;28;20420;-80
2021/06/06 10:37:30;;;;;;;3.70;2.70;;;;;;;29.56;27.01;100917.28;4990943;28;20042;-80
2021/06/06 10:40:03;;;;;;;3.55;2.60;;;;;;;29.62;25.91;100924.06;4988853;28;20038;-79
2021/06/06 10:42:53;;;;;;;3.28;2.22;;;;;;;29.71;25.22;100917.91;4988600;28;20037;-80
2021/06/06 10:45:28;;;;;;;4.07;2.30;;;;;;;29.67;24.90;100917.31;4993747;28;20467;-79
2021/06/06 10:48:02;;;;;;;3.67;2.28;;;;;;;29.42;25.01;100922.94;4991352;28;20042;-82
2021/06/06 10:50:33;;;;;;;9.77;2.40;;;;;;;29.54;26.22;100921.09;4977039;28;20039;-79
2021/06/06 10:53:19;;;;;;;5.38;2.25;;;;;;;29.69;25.14;100915.34;4990381;28;20063;-81
2021/06/06 10:56:28;;;;;;;3.63;2.50;;;;;;;29.60;23.94;100921.47;4974232;28;20583;-81
2021/06/06 10:59:06;;;;;;;5.57;2.53;;;;;;;29.69;23.58;100909.91;4993275;28;20037;-81
2021/06/06 11:01:43;;;;;;;3.63;2.10;;;;;;;29.96;23.80;100914.09;4993656;28;20045;-81
2021/06/06 11:04:16;;;;;;;3.13;2.15;;;;;;;30.09;23.41;100917.53;4991645;28;20042;-81
2021/06/06 11:06:47;;;;;;;2.97;2.17;;;;;;;30.16;23.04;100912.44;4972623;28;20066;-81
2021/06/06 11:09:31;;;;;;;3.20;2.17;;;;;;;30.19;23.23;100914.06;4993840;28;20474;-81
2021/06/06 11:12:04;;;;;;;4.05;2.50;;;;;;;30.48;23.57;100906.22;4992570;28;20069;-81
2021/06/06 11:14:37;;;;;;;4.43;2.70;;;;;;;30.67;22.93;100900.91;4996442;28;20491;-81
2021/06/06 11:17:28;;;;;;;3.70;2.10;;;;;;;30.86;23.34;100899.38;4995403;28;20034;-82
2021/06/06 11:19:54;;;;;;;4.05;2.15;;;;;;;30.92;23.26;100893.41;4994878;28;20073;-80
2021/06/06 11:22:33;;;;;;;3.30;2.22;;;;;;;30.89;22.54;100897.28;4962984;28;20039;-82
2021/06/06 11:25:00;;;;;;;4.82;2.22;;;;;;;31.01;23.20;100900.78;4991116;28;20122;-82
2021/06/06 11:27:35;;;;;;;3.60;2.50;;;;;;;30.81;21.63;100897.03;4994296;28;20066;-82
2021/06/06 11:30:03;;;;;;;3.00;2.10;;;;;;;30.83;22.21;100889.59;4991737;28;20042;-82
2021/06/06 11:32:39;;;;;;;5.18;2.60;;;;;;;30.98;22.90;100891.00;4993289;28;20051;-81
2021/06/06 11:35:29;;;;;;;3.90;2.67;;;;;;;31.16;22.84;100893.16;4955847;28;20130;-81
2021/06/06 11:37:59;;;;;;;5.38;3.20;;;;;;;31.45;22.74;100863.34;4988241;28;20092;-80